Flight Track Log - Related Links

Times and Time Zones

All times are in EDT time to prevent confusion due to time zone crossing. See the N672DS flight status page for this flight to view local times or setup timezone preferences in your user account.

Time Position Orientation Groundspeed Altitude Reporting Facility
EDT Latitude Longitude Course Direction KTS MPH feet Rate Location/Type
Sat 10:30:45 AM 39.2000 -77.1833 21° North 112 129 2,000  Level Potomac TRACON
Sat 10:31:39 AM 39.2333 -77.1667 21° North 111 128 2,600 500 Climbing Potomac TRACON
Sat 10:32:45 AM 39.2500 -77.1500 38° Northeast 114 131 3,000 238 Climbing Potomac TRACON
Sat 10:33:45 AM 39.2833 -77.1167 38° Northeast 130 150 3,100  Climbing Potomac TRACON
Sat 10:34:46 AM 39.3167 -77.1000 21° North 130 150 3,000 -50 Descending Potomac TRACON
Sat 10:35:46 AM 39.3500 -77.0833 21° North 131 151 3,000  Level Potomac TRACON
Sat 10:37:00 AM 39.3442 -77.0819 169° South  Level FlightAware Approximate
Sat 10:44:00 AM 39.3110 -77.0736 169° South  Level FlightAware Approximate
Sat 10:45:00 AM 39.3063 -77.0724 169° South  Level FlightAware Approximate
Sat 10:46:00 AM 39.3015 -77.0712 169° South  Level FlightAware Approximate
Sat 10:47:00 AM 39.2968 -77.0700 169° South  Level FlightAware Approximate
Sat 10:48:00 AM 39.2926 -77.0732 207° Southwest  Level Estimated
Sat 10:49:00 AM 39.2881 -77.0752 199° South  Level FlightAware Approximate
Sat 10:50:00 AM 39.2835 -77.0773 199° South  Level FlightAware Approximate
Sat 10:51:00 AM 39.2790 -77.0793 199° South  Level FlightAware Approximate
Sat 10:52:00 AM 39.2744 -77.0814 199° South  Level FlightAware Approximate
Sat 10:53:00 AM 39.2699 -77.0835 199° South  Level FlightAware Approximate
Sat 10:54:00 AM 39.2653 -77.0855 199° South  Level FlightAware Approximate
Sat 10:55:00 AM 39.2608 -77.0876 199° South  Level FlightAware Approximate
Sat 10:56:00 AM 39.2562 -77.0896 199° South  Level FlightAware Approximate
Sat 10:57:00 AM 39.2517 -77.0917 199° South  Level FlightAware Approximate
Sat 10:58:00 AM 39.2471 -77.0938 199° South  Level FlightAware Approximate
Sat 10:59:00 AM 39.2426 -77.0958 199° South  Level FlightAware Approximate
Sat 11:00:00 AM 39.2387 -77.0995 201° Southwest  Level Estimated
Sat 11:01:00 AM 39.2341 -77.1015 199° South  Level FlightAware Approximate
Sat 11:02:00 AM 39.2296 -77.1036 199° South  Level FlightAware Approximate
Sat 11:03:00 AM 39.2250 -77.1056 199° South  Level FlightAware Approximate
Sat 11:04:00 AM 39.2204 -77.1076 199° South  Level FlightAware Approximate
Sat 11:05:00 AM 39.2159 -77.1096 199° South  Level FlightAware Approximate
Sat 11:06:00 AM 39.2113 -77.1116 199° South  Level FlightAware Approximate
Sat 11:07:00 AM 39.2079 -77.1160 218° Southwest  Level Estimated
Sat 11:08:00 AM 39.2038 -77.1193 213° Southwest  Level FlightAware Approximate
Sat 11:09:00 AM 39.1998 -77.1227 213° Southwest  Level FlightAware Approximate
Sat 11:10:00 AM 39.1957 -77.1261 213° Southwest  Level FlightAware Approximate
Sat 11:11:00 AM 39.1916 -77.1294 213° Southwest  Level FlightAware Approximate
Sat 11:12:00 AM 39.1876 -77.1328 213° Southwest  Level FlightAware Approximate
Sat 11:13:00 AM 39.1835 -77.1361 213° Southwest  Level FlightAware Approximate
Sat 11:14:00 AM 39.1795 -77.1395 213° Southwest  Level FlightAware Approximate
Sat 11:15:00 AM 39.1754 -77.1428 213° Southwest  Level FlightAware Approximate
Sat 11:16:00 AM 39.1667 -77.1500 218° Southwest  Level FlightAware Approximate
Sat 11:17:00 AM 39.1673 -77.1562 218° Southwest  Level Estimated
Sat 11:18:00 AM 39.1667 -77.1500 218° Southwest  Level FlightAware Approximate
Sat 11:19:00 AM 39.1673 -77.1562 218° Southwest  Level Estimated
Sat 11:20:00 AM 39.1667 -77.1500 218° Southwest  Level FlightAware Approximate
Sat 11:20:25 AM 39.4000 -77.0667 218° Southwest 128 147 3,000  Level Potomac TRACON
Sat 11:21:00 AM 39.1673 -77.1562 218° Southwest  Level Estimated
Sat 11:21:25 AM 39.3833 -77.1000 237° Southwest 129 148 3,000  Level Potomac TRACON
Sat 11:22:00 AM 39.1667 -77.1500 218° Southwest  Level FlightAware Approximate
Sat 11:22:26 AM 39.3333 -77.1000 180° South 131 151 3,000  Level Potomac TRACON
Sat 11:23:00 AM 39.1673 -77.1562 218° Southwest  Level Estimated
Sat 11:23:26 AM 39.3000 -77.1167 201° Southwest 127 146 3,000  Level Potomac TRACON
Sat 11:24:00 AM 39.1667 -77.1500 218° Southwest  Level FlightAware Approximate
Sat 11:24:26 AM 39.2667 -77.1333 201° Southwest 135 155 2,800  Level Potomac TRACON
Sat 11:25:27 AM 39.2333 -77.1333 180° South 142 163 2,100 -694 Descending Potomac TRACON
Sat 11:26:27 AM 39.2000 -77.1500 201° Southwest 119 137 1,400 -397 Descending Potomac TRACON
Sat 11:27:28 AM 39.1667 -77.1333 159° South 107 123 1,300 -98 Descending Potomac TRACON
Sat 11:30:00 AM 39.1667 -77.1435 270° West  Level FlightAware Approximate

Login

Don't have an account? Register now (free) for customized features, flight alerts, and more!